Sainte-Croix, Canada
Current Conditions -  °F | °C
As of 10:23 AM on Friday 28 Nov 2014 (Local Time) from CYQB Reporting Station
Light Snow Light Snow  
Wind Chill: 13°   Ceiling: 1500
Heat Index: 21°   Visibility: 2.5mi
Dew Point: 16°   Wind: 7mph
Humidity: 80%   Direction: 80°E
Pressure: 30.05"   Gusts: NA
Location:  46.62°N, 71.73°W
Report Text: CYQB 281523Z 08006KT 050V120 2 1/2SM -SN BKN015 OVC025 M06/M09 A3005 RMK SC6SC2 VIS SE-S 4 SLP182
Loading
Personal Weather Stations






























Interactive Weather Map New forecast layout! Learn more

10-Day Weather Forecast

Advertisements
Track Severe Weather on mobile